Time;durP1;ratioP1;P1;durP2;ratioP2;P2;SDS_P1;SDS_P2;PMS_P1;PMS_P2;Temp;Humidity;BMP_temperature;BMP_pressure;BME280_temperature;BME280_humidity;BME280_pressure;Samples;Min_cycle;Max_cycle;Signal;HPM_P1;HPM_P2
2023/10/11 00:01:11;;;;;;;17.83;10.50;;;;;;;;;;5064097;28;20099;-67
2023/10/11 00:03:45;;;;;;;13.70;9.80;;;;;;;;;;5082403;28;20028;-67
2023/10/11 00:06:13;;;;;;;12.27;10.20;;;;;;;;;;5092001;28;20040;-67
2023/10/11 00:08:40;;;;;;;15.30;11.02;;;;;;;;;;5060661;28;20031;-67
2023/10/11 00:11:09;;;;;;;16.48;10.57;;;;;;;;;;5072276;28;20422;-67
2023/10/11 00:13:36;;;;;;;13.10;10.43;;;;;;;;;;5075500;28;20025;-67
2023/10/11 00:16:09;;;;;;;14.55;9.65;;;;;;;;;;5040914;28;20035;-67
2023/10/11 00:18:36;;;;;;;22.02;10.52;;;;;;;;;;5075023;28;20122;-67
2023/10/11 00:21:11;;;;;;;12.40;10.05;;;;;;;;;;5090143;28;20035;-67
2023/10/11 00:23:51;;;;;;;12.18;9.70;;;;;;;;;;5053525;28;20028;-67
2023/10/11 00:26:18;;;;;;;13.65;10.48;;;;;;;;;;5074476;28;20052;-67
2023/10/11 00:28:44;;;;;;;15.68;9.43;;;;;;;;;;5065379;28;20051;-67
2023/10/11 00:31:18;;;;;;;17.33;10.70;;;;;;;;;;5080417;28;20366;-67
2023/10/11 00:33:44;;;;;;;;;;;;;;;;;;5072254;28;20043;-67
2023/10/11 00:36:11;;;;;;;16.85;9.63;;;;;;;;;;5092202;28;19904;-67
2023/10/11 00:38:46;;;;;;;15.93;9.80;;;;;;;;;;5090486;28;20088;-67
2023/10/11 00:41:12;;;;;;;12.98;9.38;;;;;;;;;;5091401;28;20093;-67
2023/10/11 00:43:52;;;;;;;13.88;9.70;;;;;;;;;;5090576;28;20377;-67
2023/10/11 00:46:50;;;;;;;15.55;9.57;;;;;;;;;;5055173;28;20520;-67
2023/10/11 00:49:16;;;;;;;11.52;9.27;;;;;;;;;;5083166;28;20100;-67
2023/10/11 00:51:43;;;;;;;16.98;10.05;;;;;;;;;;5090756;28;20390;-67
2023/10/11 00:54:13;;;;;;;10.85;9.10;;;;;;;;;;5075652;28;20424;-67
2023/10/11 00:56:43;;;;;;;14.57;9.15;;;;;;;;;;5077796;28;20094;-67
2023/10/11 00:59:11;;;;;;;12.43;9.02;;;;;;;;;;5090897;28;20047;-67
2023/10/11 01:01:39;;;;;;;12.02;9.25;;;;;;;;;;5092317;28;20048;-67
2023/10/11 01:04:10;;;;;;;12.20;9.38;;;;;;;;;;5062557;28;20032;-67
2023/10/11 01:06:36;;;;;;;12.35;9.27;;;;;;;;;;5072167;28;20044;-67
2023/10/11 01:09:21;;;;;;;14.25;10.38;;;;;;;;;;5077561;28;20103;-67
2023/10/11 01:11:47;;;;;;;12.90;8.52;;;;;;;;;;5092669;28;20050;-67
2023/10/11 01:14:14;;;;;;;11.70;8.93;;;;;;;;;;5092625;28;20053;-67
2023/10/11 01:16:41;;;;;;;13.18;9.80;;;;;;;;;;5093473;28;20123;-67
2023/10/11 01:19:16;;;;;;;14.98;10.05;;;;;;;;;;5092516;28;20024;-67
2023/10/11 01:21:46;;;;;;;;;;;;;;;;;;5067291;28;20077;-67
2023/10/11 01:24:14;;;;;;;12.07;9.43;;;;;;;;;;5086087;28;20332;-67
2023/10/11 01:26:41;;;;;;;17.05;10.80;;;;;;;;;;5092469;28;20063;-67
2023/10/11 01:29:09;;;;;;;14.38;11.45;;;;;;;;;;5076591;28;20031;-67
2023/10/11 01:31:35;;;;;;;14.65;11.10;;;;;;;;;;5084145;28;20456;-67
2023/10/11 01:34:02;;;;;;;17.77;11.57;;;;;;;;;;5076928;28;20028;-66
2023/10/11 01:36:28;;;;;;;16.60;10.93;;;;;;;;;;5077103;28;20493;-67
2023/10/11 01:38:54;;;;;;;15.55;11.73;;;;;;;;;;5058923;28;20080;-67
2023/10/11 01:41:21;;;;;;;14.80;11.68;;;;;;;;;;5093403;28;20028;-67
2023/10/11 01:43:49;;;;;;;17.63;12.48;;;36.40;99.90;;;;;;5093584;28;20035;-67
2023/10/11 01:46:35;;;;;;;15.35;12.35;;;36.50;99.90;;;;;;5085633;28;20060;-66
2023/10/11 01:49:01;;;;;;;18.48;12.10;;;36.30;99.90;;;;;;5076948;28;20409;-67
2023/10/11 01:51:27;;;;;;;18.95;12.13;;;;;;;;;;5073513;28;20490;-66
2023/10/11 01:53:57;;;;;;;17.00;12.07;;;;;;;;;;5056157;28;20120;-66
2023/10/11 01:56:26;;;;;;;17.58;12.88;;;;;;;;;;5076754;28;20031;-67
2023/10/11 01:58:52;;;;;;;22.42;13.50;;;;;;;;;;5074179;28;20031;-67
2023/10/11 02:01:22;;;;;;;19.88;12.90;;;;;;;;;;5056062;28;20442;-67
2023/10/11 02:03:53;;;;;;;19.73;13.95;;;;;;;;;;5057883;28;20043;-67
2023/10/11 02:06:20;;;;;;;17.25;13.45;;;;;;;;;;5073966;28;20174;-67
2023/10/11 02:08:46;;;;;;;19.27;13.07;;;;;;;;;;5074267;28;20021;-67
2023/10/11 02:11:14;;;;;;;18.25;14.07;;;;;;;;;;5078667;28;20046;-67
2023/10/11 02:13:40;;;;;;;21.65;14.88;;;;;;;;;;5074963;28;20044;-67
2023/10/11 02:16:11;;;;;;;21.05;13.82;;;;;;;;;;5085548;28;20021;-66
2023/10/11 02:18:37;;;;;;;19.60;13.45;;;;;;;;;;5058459;28;20474;-67
2023/10/11 02:21:06;;;;;;;20.52;14.55;;;;;;;;;;5055401;28;20025;-67
2023/10/11 02:23:42;;;;;;;24.33;13.73;;;;;;;;;;5087229;28;20024;-67
2023/10/11 02:26:12;;;;;;;19.30;13.90;;;;;;;;;;5093721;28;20055;-67
2023/10/11 02:28:39;;;;;;;22.33;14.32;;;;;;;;;;5085849;28;20522;-67
2023/10/11 02:31:07;;;;;;;18.02;14.05;;;;;;;;;;5080280;28;20358;-67
2023/10/11 02:33:33;;;;;;;22.25;14.27;;;;;;;;;;5091361;28;20024;-67
2023/10/11 02:36:08;;;;;;;19.92;14.07;;;;;;;;;;5075268;28;20107;-67
2023/10/11 02:38:40;;;;;;;23.63;14.23;;;;;;;;;;5092424;28;20031;-67
2023/10/11 02:41:07;;;;;;;20.33;14.48;;;;;;;;;;5081342;28;20032;-67
2023/10/11 02:43:47;;;;;;;22.10;14.95;;;;;;;;;;5091429;28;20527;-67
2023/10/11 02:46:13;;;;;;;25.50;16.75;;;;;;;;;;5091512;28;20068;-67
2023/10/11 02:48:45;;;;;;;24.33;16.33;;;;;;;;;;5082982;28;20488;-67
2023/10/11 02:51:15;;;;;;;28.48;16.40;;;;;;;;;;5080179;28;20059;-67
2023/10/11 02:53:43;;;;;;;24.10;16.27;;;;;;;;;;5091842;28;20059;-67
2023/10/11 02:56:11;;;;;;;30.98;17.42;;;;;;;;;;5093444;28;20443;-67
2023/10/11 02:58:40;;;;;;;25.48;17.95;;;;;;;;;;5092958;28;20028;-67
2023/10/11 03:04:03;;;;;;;24.85;16.27;;;;;;;;;;5070075;28;20039;-67
2023/10/11 03:06:35;;;;;;;24.00;16.80;;;;;;;;;;5091023;28;20457;-67
2023/10/11 03:09:01;;;;;;;28.15;18.38;;;;;;;;;;5088240;28;20028;-67
2023/10/11 03:11:29;;;;;;;31.75;18.63;;;;;;;;;;5065019;28;20149;-67
2023/10/11 03:13:56;;;;;;;30.90;18.27;;;;;;;;;;5089912;28;20035;-67
2023/10/11 03:16:23;;;;;;;26.35;17.67;;;;;;;;;;5081750;28;20111;-67
2023/10/11 03:18:52;;;;;;;28.13;18.80;;;;;;;;;;5073154;28;20098;-67
2023/10/11 03:21:32;;;;;;;29.52;18.42;;;;;;;;;;5083290;28;20044;-67
2023/10/11 03:24:04;;;;;;;30.02;20.52;;;;;;;;;;5081896;28;20024;-67
2023/10/11 03:28:57;;;;;;;29.20;22.00;;;;;;;;;;5073890;28;20050;-67
2023/10/11 03:31:23;;;;;;;39.92;23.40;;;;;;;;;;5079463;28;20033;-67
2023/10/11 03:33:59;;;;;;;34.80;21.52;;;;;;;;;;5071699;28;20481;-67
2023/10/11 03:36:42;;;;;;;38.50;23.80;;;;;;;;;;5054289;28;20389;-67
2023/10/11 03:39:09;;;;;;;35.40;22.73;;;;;;;;;;5056802;28;20032;-67
2023/10/11 03:41:36;;;;;;;38.65;23.38;;;;;;;;;;5074502;28;20028;-67
2023/10/11 03:44:17;;;;;;;34.28;22.75;;;;;;;;;;5072847;28;20032;-67
2023/10/11 03:46:47;;;;;;;32.20;23.10;;;;;;;;;;5090647;28;20040;-67
2023/10/11 03:51:48;;;;;;;37.05;23.83;;;;;;;;;;5092764;28;20024;-67
2023/10/11 03:54:23;;;;;;;44.90;26.95;;;;;;;;;;5091015;28;20020;-67
2023/10/11 03:56:53;;;;;;;35.55;24.25;;;;;;;;;;5092537;28;20376;-66
2023/10/11 03:59:28;;;;;;;41.70;25.98;;;;;;;;;;5091492;28;20032;-67
2023/10/11 04:01:54;;;;;;;40.45;26.35;;;;;;;;;;5058235;28;20116;-67
2023/10/11 04:04:21;;;;;;;41.08;27.25;;;;;;;;;;5068618;28;20027;-66
2023/10/11 04:06:51;;;;;;;44.50;27.63;;;;;;;;;;5055608;28;20040;-67
2023/10/11 04:09:37;;;;;;;45.00;26.98;;;;;;;;;;5054770;28;20501;-67
2023/10/11 04:12:10;;;;;;;42.95;27.58;;;;;;;;;;5072354;28;20100;-67
2023/10/11 04:14:46;;;;;;;41.95;26.95;;;;;;;;;;5091799;28;20028;-67
2023/10/11 04:19:51;;;;;;;47.72;27.25;;;;;;;;;;5077874;28;20032;-67
2023/10/11 04:22:23;;;;;;;43.25;27.92;;;;;;;;;;5071896;28;20028;-67
2023/10/11 04:24:52;;;;;;;53.45;29.20;;;;;;;;;;5076964;28;20474;-67
2023/10/11 04:29:50;;;;;;;39.63;29.35;;;;;;;;;;5074653;28;20487;-67
2023/10/11 04:32:40;;;;;;;48.90;29.90;;;;;;;;;;5088971;28;20385;-66
2023/10/11 04:35:02;;;;;;;49.80;30.23;;;;;;;;;;5077805;28;20032;-67
2023/10/11 04:37:30;;;;;;;50.42;30.38;;;;;;;;;;5078490;28;20036;-67
2023/10/11 04:40:14;;;;;;;46.33;30.00;;;;;;;;;;5068984;28;20046;-67
2023/10/11 04:43:04;;;;;;;47.47;29.35;;;;;;;;;;5077970;28;20094;-67
2023/10/11 04:45:30;;;;;;;44.78;28.10;;;;;;;;;;5080981;28;20037;-67
2023/10/11 04:47:58;;;;;;;45.20;29.30;;;;;;;;;;5075483;28;20382;-67
2023/10/11 04:50:24;;;;;;;47.45;28.17;;;;;;;;;;5095763;28;20032;-67
2023/10/11 04:52:50;;;;;;;43.15;29.50;;;;;;;;;;5095045;28;20031;-67
2023/10/11 04:55:32;;;;;;;44.70;29.30;;;;;;;;;;5077339;28;20020;-67
2023/10/11 04:58:06;;;;;;;48.17;29.17;;;;;;;;;;5090255;28;20032;-67
2023/10/11 05:00:44;;;;;;;42.63;28.02;;;;;;;;;;5060189;28;20397;-67
2023/10/11 05:03:10;;;;;;;48.97;29.42;;;;;;;;;;5093811;28;20027;-67
2023/10/11 05:05:41;;;;;;;47.40;30.30;;;;;;;;;;5095425;28;20567;-67
2023/10/11 05:08:20;;;;;;;46.90;29.88;;;;;;;;;;5094619;28;20381;-67
2023/10/11 05:10:50;;;;;;;45.38;29.35;;;;;;;;;;5093229;28;20027;-67
2023/10/11 05:13:19;;;;;;;43.63;28.75;;;;;;;;;;5093879;28;20047;-67
2023/10/11 05:15:48;;;;;;;46.13;29.40;;;;;;;;;;5092334;28;20408;-68
2023/10/11 05:18:24;;;;;;;45.63;29.20;;;;;;;;;;5082556;28;20588;-68
2023/10/11 05:21:00;;;;;;;47.47;31.10;;;;;;;;;;5085833;28;20032;-68
2023/10/11 05:23:42;;;;;;;52.00;30.95;;;;;;;;;;5073633;28;20096;-68
2023/10/11 05:26:36;;;;;;;48.00;28.25;;;;;;;;;;5078288;28;20048;-67
2023/10/11 05:29:09;;;;;;;49.30;30.73;;;;;;;;;;5090326;28;20024;-67
2023/10/11 05:31:44;;;;;;;46.08;31.55;;;;;;;;;;5078135;28;20123;-67
2023/10/11 05:51:03;;;;;;;55.38;33.10;;;;;;;;;;5081623;28;20047;-67
2023/10/11 05:53:29;;;;;;;54.45;32.28;;;;;;;;;;5076879;28;20024;-66
2023/10/11 05:55:56;;;;;;;49.60;32.50;;;;;;;;;;5079260;28;20025;-66
2023/10/11 05:58:22;;;;;;;53.58;33.20;;;;;;;;;;5079277;28;20031;-66
2023/10/11 06:00:49;;;;;;;53.65;32.85;;;;;;;;;;5079157;28;20046;-67
2023/10/11 06:03:16;;;;;;;49.90;33.28;;;;;;;;;;5079628;28;20488;-67
2023/10/11 06:05:42;;;;;;;54.92;33.80;;;;;;;;;;5076121;28;20033;-67
2023/10/11 06:08:15;;;;;;;54.97;34.53;;;;;;;;;;5056882;28;20029;-67
2023/10/11 06:10:41;;;;;;;64.55;34.88;;;;;;;;;;5078116;28;20023;-68
2023/10/11 06:13:14;;;;;;;56.85;33.38;;;;;;;;;;5074333;28;20056;-68
2023/10/11 06:16:00;;;;;;;57.40;34.85;;;;;;;;;;5085229;28;20142;-69
2023/10/11 06:23:56;;;;;;;59.67;34.40;;;;;;;;;;5089160;28;20385;-68
2023/10/11 06:29:16;;;;;;;54.15;33.65;;;;;;;;;;5063336;28;20107;-68
2023/10/11 06:31:45;;;;;;;62.15;36.53;;;;;;;;;;5063397;28;20486;-68
2023/10/11 06:34:23;;;;;;;56.40;35.50;;;;;;;;;;5052959;28;20104;-68
2023/10/11 06:36:49;;;;;;;60.45;35.95;;;;;;;;;;5072077;28;20037;-68
2023/10/11 06:42:40;;;;;;;58.10;35.67;;;;;;;;;;5046179;28;20086;-68
2023/10/11 06:44:59;;;;;;;76.18;42.03;;;;;;;;;;5050996;28;20036;-67
2023/10/11 06:47:35;;;;;;;60.00;35.35;;;;;;;;;;5051959;28;20029;-68
2023/10/11 06:50:10;;;;;;;57.63;34.50;;;;;;;;;;5051651;28;20024;-67
2023/10/11 06:52:37;;;;;;;61.72;36.70;;;;;;;;;;5051743;28;20036;-68
2023/10/11 06:55:22;;;;;;;61.90;38.22;;;;;;;;;;5053266;28;20025;-67
2023/10/11 06:57:52;;;;;;;63.28;35.50;;;;;;;;;;5052842;28;20028;-68
2023/10/11 07:00:23;;;;;;;58.78;36.25;;;;;;;;;;5052892;28;20040;-68
2023/10/11 07:03:21;;;;;;;57.75;38.08;;;;;;;;;;5053047;28;20017;-68
2023/10/11 07:05:48;;;;;;;58.90;38.08;;;;;;;;;;5051421;28;20074;-68
2023/10/11 07:08:17;;;;;;;65.57;39.78;;;;;;;;;;5051345;28;20029;-68
2023/10/11 07:11:00;;;;;;;63.13;38.45;;;;;;;;;;5052966;28;20020;-67
2023/10/11 07:13:29;;;;;;;58.08;36.75;;;;;;;;;;5052839;28;20107;-68
2023/10/11 07:16:08;;;;;;;56.80;38.85;;;;;;;;;;5052919;28;20374;-68
2023/10/11 07:18:39;;;;;;;59.75;37.13;;;;;;;;;;5052635;28;20432;-68
2023/10/11 07:21:07;;;;;;;53.72;37.17;;;;;;;;;;5051281;28;20072;-68
2023/10/11 07:23:46;;;;;;;57.08;37.33;;;;;;;;;;5052584;28;20033;-68
2023/10/11 07:26:48;;;;;;;51.38;35.35;;;;;;;;;;5056856;28;20137;-68
2023/10/11 07:29:09;;;;;;;56.58;35.85;;;;;;;;;;5071571;28;20126;-68
2023/10/11 07:31:38;;;;;;;61.88;38.47;;;;;;;;;;5072266;28;20429;-68
2023/10/11 07:34:09;;;;;;;58.58;36.97;;;;;;;;;;5072140;28;20538;-67
2023/10/11 07:36:38;;;;;;;53.05;36.25;;;;;;;;;;5054411;28;20048;-68
2023/10/11 07:39:14;;;;;;;51.00;35.95;;;;;;;;;;5072243;28;20363;-67
2023/10/11 07:41:43;;;;;;;53.95;34.85;;;;;;;;;;5072757;28;20028;-68
2023/10/11 07:44:10;;;;;;;50.53;35.25;;;;;;;;;;5071780;28;20020;-68
2023/10/11 07:46:40;;;;;;;58.38;36.65;;;;;;;;;;5072338;28;20040;-68
2023/10/11 07:49:06;;;;;;;55.90;35.53;;;;;;;;;;5072372;28;20021;-68
2023/10/11 07:51:36;;;;;;;54.17;35.97;;;;;;;;;;5072137;28;20035;-68
2023/10/11 07:54:19;;;;;;;59.28;34.67;;;;;;;;;;5071770;28;20031;-68
2023/10/11 07:56:45;;;;;;;59.90;34.67;;;;;;;;;;5071749;28;20031;-67
2023/10/11 07:59:12;;;;;;;49.33;34.35;;;;;;;;;;5071453;28;20442;-69
2023/10/11 08:01:45;;;;;;;53.22;35.55;;;;;;;;;;5071741;28;20047;-68
2023/10/11 08:04:17;;;;;;;52.42;33.08;;;;;;;;;;5071868;28;20056;-68
2023/10/11 08:06:43;;;;;;;48.05;33.25;;;;;;;;;;5072264;28;20063;-67
2023/10/11 08:09:18;;;;;;;52.58;32.42;;;;;;;;;;5072783;28;20108;-67
2023/10/11 08:11:57;;;;;;;48.28;31.45;;;;;;;;;;5058005;28;20115;-68
2023/10/11 08:14:29;;;;;;;45.25;30.40;;;;;;;;;;5073765;28;20031;-67
2023/10/11 08:16:56;;;;;;;49.40;30.90;;;;;;;;;;5096809;28;20028;-67
2023/10/11 08:19:23;;;;;;;43.83;30.77;;;;;;;;;;5077796;28;20024;-68
2023/10/11 08:21:55;;;;;;;33.88;25.73;;;;;;;;;;5093738;28;20035;-68
2023/10/11 08:24:25;;;;;;;37.60;26.58;;;;;;;;;;5096088;28;20032;-68
2023/10/11 08:27:05;;;;;;;41.10;28.80;;;;;;;;;;5095900;28;20040;-68
2023/10/11 08:29:32;;;;;;;39.60;26.55;;;;;;;;;;5096210;28;20442;-68
2023/10/11 08:31:58;;;;;;;36.80;24.92;;;;;;;;;;5095893;28;20040;-68
2023/10/11 08:34:28;;;;;;;37.25;24.88;;;;;;;;;;5095957;28;20070;-68
2023/10/11 08:36:55;;;;;;;41.38;27.48;;;;;;;;;;5095802;28;20069;-68
2023/10/11 08:39:27;;;;;;;32.88;22.27;;;;;;;;;;5095749;28;20099;-68
2023/10/11 08:41:58;;;;;;;35.58;22.85;;;;;;;;;;5095834;28;20028;-68
2023/10/11 08:44:27;;;;;;;37.17;25.38;;;;;;;;;;5095537;28;20050;-68
2023/10/11 08:46:54;;;;;;;44.97;28.23;;;;;;;;;;5095508;28;20036;-68
2023/10/11 08:49:20;;;;;;;33.33;22.92;;;;;;;;;;5095429;28;20024;-68
2023/10/11 08:51:48;;;;;;;32.60;21.23;;;;;;;;;;5095545;28;20496;-68
2023/10/11 08:54:16;;;;;;;30.95;21.15;;;;;;;;;;5095413;28;20031;-68
2023/10/11 08:56:54;;;;;;;37.72;24.70;;;36.30;99.90;;;;;;5095431;28;20154;-68
2023/10/11 08:59:25;;;;;;;34.80;24.13;;;36.90;99.90;;;;;;5095571;28;20069;-68
2023/10/11 09:01:59;;;;;;;37.60;24.85;;;36.90;99.90;;;;;;5095698;28;20028;-68
2023/10/11 09:07:46;;;;;;;37.75;23.58;;;37.00;99.90;;;;;;5089415;28;20510;-69
2023/10/11 09:10:26;;;;;;;33.63;23.52;;;36.90;99.90;;;;;;5095101;28;20028;-68
2023/10/11 09:12:59;;;;;;;33.08;23.70;;;37.00;99.90;;;;;;5095740;28;20024;-68
2023/10/11 09:19:09;;;;;;;31.13;20.30;;;37.00;99.90;;;;;;5093711;28;20023;-68
2023/10/11 09:21:38;;;;;;;38.03;21.88;;;37.00;99.90;;;;;;5093405;28;20020;-68
2023/10/11 09:24:23;;;;;;;35.70;23.00;;;37.00;99.90;;;;;;5075592;28;20032;-68
2023/10/11 09:29:42;;;;;;;35.20;22.05;;;37.10;99.90;;;;;;5055143;28;20029;-69
2023/10/11 09:32:09;;;;;;;35.08;23.73;;;37.10;99.90;;;;;;5054724;28;20403;-68
2023/10/11 09:34:41;;;;;;;35.90;24.63;;;;;;;;;;5054914;28;20017;-68
2023/10/11 09:37:11;;;;;;;38.88;25.98;;;;;;;;;;5054916;28;20355;-68
2023/10/11 09:39:37;;;;;;;35.13;23.25;;;;;;;;;;5053180;28;20020;-68
2023/10/11 09:42:04;;;;;;;30.98;21.92;;;;;;;;;;5054467;28;20103;-68
2023/10/11 09:44:40;;;;;;;30.50;22.30;;;;;;;;;;5053977;28;20017;-68
2023/10/11 09:47:09;;;;;;;35.90;24.77;;;;;;;;;;5054275;28;20494;-67
2023/10/11 09:49:41;;;;;;;37.35;26.88;;;;;;;;;;5054031;28;20108;-62
2023/10/11 09:52:18;;;;;;;32.10;24.05;;;;;;;;;;5052781;28;20072;-62
2023/10/11 09:54:44;;;;;;;35.55;24.73;;;;;;;;;;5054279;28;20059;-67
2023/10/11 09:57:29;;;;;;;37.88;24.75;;;;;;;;;;5054076;28;20100;-67
2023/10/11 09:59:59;;;;;;;37.85;27.92;;;;;;;;;;5052360;28;20033;-66
2023/10/11 10:02:34;;;;;;;40.50;26.48;;;;;;;;;;5056909;28;20052;-66
2023/10/11 10:05:04;;;;;;;37.80;26.25;;;;;;;;;;5053569;28;20021;-66
2023/10/11 10:10:06;;;;;;;33.25;25.10;;;;;;;;;;5053567;28;20332;-66
2023/10/11 10:12:33;;;;;;;35.65;25.98;;;;;;;;;;5053813;28;20028;-68
2023/10/11 10:15:12;;;;;;;45.38;26.85;;;;;;;;;;5056084;28;20025;-68
2023/10/11 10:17:38;;;;;;;34.38;26.00;;;;;;;;;;5073788;28;20107;-69
2023/10/11 10:20:33;;;;;;;43.00;27.25;;;;;;;;;;5072121;28;20125;-67
2023/10/11 10:23:14;;;;;;;38.38;26.45;;;;;;;;;;5071889;28;20036;-67
2023/10/11 10:26:13;;;;;;;97.07;31.98;;;;;;;;;;5071810;28;20060;-67
2023/10/11 10:28:39;;;;;;;39.30;26.58;;;;;;;;;;5071647;28;20040;-68
2023/10/11 10:31:12;;;;;;;41.75;24.55;;;;;;;;;;5071798;28;20116;-68
2023/10/11 10:33:41;;;;;;;37.92;24.35;;;;;;;;;;5073233;28;20470;-69
2023/10/11 10:36:28;;;;;;;37.65;23.88;;;;;;;;;;5073513;28;20115;-69
2023/10/11 10:39:00;;;;;;;38.95;24.83;;;37.10;99.90;;;;;;5073718;28;20021;-69
2023/10/11 10:41:27;;;;;;;38.15;25.95;;;37.80;99.90;;;;;;5072757;28;20029;-69
2023/10/11 10:44:06;;;;;;;32.58;24.55;;;37.80;99.90;;;;;;5073043;28;20478;-69
2023/10/11 10:46:33;;;;;;;35.72;24.38;;;37.80;99.90;;;;;;5071596;28;20032;-69
2023/10/11 10:49:01;;;;;;;34.33;24.88;;;37.80;99.90;;;;;;5071490;28;20115;-68
2023/10/11 10:51:36;;;;;;;39.67;28.02;;;37.90;99.90;;;;;;5072991;28;20028;-68
2023/10/11 10:54:12;;;;;;;34.88;26.50;;;37.90;99.90;;;;;;5072801;28;20074;-68
2023/10/11 10:56:45;;;;;;;36.78;25.23;;;38.00;99.90;;;;;;5071636;28;20036;-68
2023/10/11 10:59:14;;;;;;;35.05;26.20;;;37.90;99.90;;;;;;5051782;28;20021;-68
2023/10/11 11:01:40;;;;;;;39.85;27.92;;;37.90;99.90;;;;;;5052931;28;20110;-68
2023/10/11 11:04:09;;;;;;;35.33;25.50;;;37.90;99.90;;;;;;5052650;28;20540;-68
2023/10/11 11:06:46;;;;;;;42.60;27.85;;;37.90;99.90;;;;;;5052820;28;20036;-69
2023/10/11 11:09:15;;;;;;;37.55;27.98;;;38.00;99.90;;;;;;5052551;28;20166;-68
2023/10/11 11:11:44;;;;;;;43.65;29.27;;;38.00;99.90;;;;;;5052797;28;20096;-68
2023/10/11 11:14:15;;;;;;;42.03;28.98;;;38.00;99.90;;;;;;5052426;28;20463;-68
2023/10/11 11:16:55;;;;;;;35.78;27.58;;;38.00;99.90;;;;;;5051378;28;20036;-69
2023/10/11 11:19:25;;;;;;;39.30;26.63;;;38.00;99.90;;;;;;5051239;28;20139;-69
2023/10/11 11:22:19;;;;;;;44.70;30.40;;;38.00;99.90;;;;;;5052446;28;20025;-68
2023/10/11 11:24:52;;;;;;;41.00;29.02;;;38.00;99.90;;;;;;5052689;28;20104;-69
2023/10/11 11:27:29;;;;;;;40.10;28.35;;;37.90;99.90;;;;;;5050894;28;20490;-68
2023/10/11 11:30:02;;;;;;;46.03;29.60;;;37.90;99.90;;;;;;5052402;28;20028;-68
2023/10/11 11:32:37;;;;;;;44.05;30.55;;;37.90;99.90;;;;;;5052308;28;20241;-68
2023/10/11 11:38:02;;;;;;;44.53;27.42;;;37.90;99.90;;;;;;5051971;28;20056;-68
2023/10/11 11:40:31;;;;;;;43.28;29.48;;;38.00;99.90;;;;;;5051995;28;20032;-68
2023/10/11 11:43:00;;;;;;;46.53;29.20;;;38.00;99.90;;;;;;5034518;28;20032;-68
2023/10/11 11:45:29;;;;;;;48.58;27.08;;;38.00;99.90;;;;;;5051404;28;20021;-69
2023/10/11 11:47:58;;;;;;;44.25;29.95;;;38.00;99.90;;;;;;5051312;28;20032;-68
2023/10/11 11:50:35;;;;;;;47.75;31.02;;;38.00;99.90;;;;;;5050093;28;20383;-68
2023/10/11 11:53:01;;;;;;;48.97;33.70;;;38.10;99.90;;;;;;5051142;28;20028;-68
2023/10/11 11:55:27;;;;;;;38.95;28.23;;;38.10;99.90;;;;;;5049529;28;20415;-68
2023/10/11 11:57:59;;;;;;;43.05;30.85;;;38.10;99.90;;;;;;5051847;28;20021;-68
2023/10/11 12:02:55;;;;;;;49.95;33.35;;;38.20;99.90;;;;;;5051714;28;20029;-68
2023/10/11 12:05:21;;;;;;;38.88;29.38;;;38.20;99.90;;;;;;5051683;28;20028;-68
2023/10/11 12:07:51;;;;;;;43.38;30.65;;;38.20;99.90;;;;;;5051709;28;20048;-68
2023/10/11 12:10:25;;;;;;;49.25;31.92;;;38.20;99.90;;;;;;5051771;28;20053;-68
2023/10/11 12:13:05;;;;;;;39.35;30.67;;;38.40;99.90;;;;;;5051888;28;20164;-68
2023/10/11 12:15:31;;;;;;;48.53;33.42;;;38.30;99.90;;;;;;5054622;28;20504;-68
2023/10/11 12:17:57;;;;;;;53.95;34.45;;;38.40;99.90;;;;;;5051770;28;20025;-69
2023/10/11 12:20:33;;;;;;;47.40;34.67;;;38.40;99.90;;;;;;5051715;28;20021;-68
2023/10/11 12:23:07;;;;;;;45.15;32.17;;;;;;;;;;5052020;28;20029;-68
2023/10/11 12:25:47;;;;;;;40.10;29.13;;;;;;;;;;5051287;28;20368;-69
2023/10/11 12:28:14;;;;;;;44.97;32.13;;;;;;;;;;5069216;28;20044;-68
2023/10/11 12:30:44;;;;;;;47.03;33.88;;;;;;;;;;5071658;28;20470;-69
2023/10/11 12:33:10;;;;;;;42.13;33.25;;;;;;;;;;5071683;28;20028;-68
2023/10/11 12:35:39;;;;;;;46.63;33.78;;;;;;;;;;5071967;28;20032;-68
2023/10/11 12:38:06;;;;;;;49.75;32.25;;;;;;;;;;5071651;28;20024;-68
2023/10/11 12:40:34;;;;;;;47.53;34.67;;;;;;;;;;5071488;28;20099;-69
2023/10/11 12:43:00;;;;;;;41.00;30.67;;;;;;;;;;5071710;28;20099;-68
2023/10/11 12:45:26;;;;;;;43.67;33.08;;;;;;;;;;5071931;28;20032;-68
2023/10/11 12:47:52;;;;;;;45.80;30.92;;;;;;;;;;5071509;28;20450;-69
2023/10/11 12:50:20;;;;;;;48.83;31.65;;;;;;;;;;5071393;28;20181;-68
2023/10/11 12:52:46;;;;;;;45.97;31.90;;;;;;;;;;5071458;28;20103;-68
2023/10/11 12:55:12;;;;;;;47.13;33.08;;;;;;;;;;5072459;28;20029;-69
2023/10/11 12:57:39;;;;;;;46.30;32.58;;;;;;;;;;5075234;28;20021;-69
2023/10/11 13:00:31;;;;;;;50.10;33.70;;;;;;;;;;5075074;28;20028;-69
2023/10/11 13:02:59;;;;;;;40.83;29.98;;;;;;;;;;5075273;28;20021;-69
2023/10/11 13:05:30;;;;;;;43.70;31.42;;;;;;;;;;5074805;28;20064;-69
2023/10/11 13:07:57;;;;;;;45.83;33.00;;;;;;;;;;5074706;28;20474;-69
2023/10/11 13:10:23;;;;;;;52.05;34.03;;;;;;;;;;5074956;28;20052;-69
2023/10/11 13:12:56;;;;;;;44.05;34.53;;;;;;;;;;5074569;28;20386;-69
2023/10/11 13:15:23;;;;;;;47.42;35.10;;;;;;;;;;5092291;28;20106;-69
2023/10/11 13:17:51;;;;;;;46.55;33.25;;;;;;;;;;5094795;28;20028;-68
2023/10/11 13:20:20;;;;;;;41.83;33.00;;;;;;;;;;5094574;28;20449;-68
2023/10/11 13:22:48;;;;;;;44.03;34.33;;;;;;;;;;5094032;28;20095;-68
2023/10/11 13:25:24;;;;;;;39.17;30.58;;;;;;;;;;5094507;28;20073;-68
2023/10/11 13:27:54;;;;;;;43.85;34.28;;;;;;;;;;5094364;28;20056;-68
2023/10/11 13:30:22;;;;;;;46.97;34.35;;;;;;;;;;5094839;28;20530;-69
2023/10/11 13:32:49;;;;;;;44.97;33.47;;;;;;;;;;5090941;28;20132;-69
2023/10/11 13:35:15;;;;;;;43.30;33.42;;;;;;;;;;5075089;28;20025;-69
2023/10/11 13:37:46;;;;;;;51.58;37.67;;;;;;;;;;5074249;28;20028;-68
2023/10/11 13:40:17;;;;;;;50.10;35.10;;;;;;;;;;5074274;28;20029;-68
2023/10/11 13:42:43;;;;;;;44.05;31.92;;;;;;;;;;5074382;28;20040;-69
2023/10/11 13:45:16;;;;;;;43.95;34.67;;;;;;;;;;5074771;28;20028;-68
2023/10/11 13:47:42;;;;;;;46.50;33.92;;;;;;;;;;5074421;28;20028;-68
2023/10/11 13:50:20;;;;;;;46.33;34.40;;;;;;;;;;5074146;28;20467;-68
2023/10/11 13:52:48;;;;;;;43.30;35.45;;;;;;;;;;5074394;28;20016;-64
2023/10/11 13:55:14;;;;;;;47.80;35.05;;;;;;;;;;5074265;28;20034;-64
2023/10/11 13:57:41;;;;;;;45.83;35.33;;;;;;;;;;5074213;28;20127;-64
2023/10/11 14:01:01;;;;;;;49.78;38.33;;;;;;;;;;5073840;28;20390;-63
2023/10/11 14:05:42;;;;;;;42.47;33.22;;;;;;;;;;5074405;28;20040;-64
2023/10/11 14:08:24;;;;;;;49.15;35.15;;;;;;;;;;5073000;28;20439;-63
2023/10/11 14:10:53;;;;;;;48.78;35.15;;;;;;;;;;5074113;28;20031;-63
2023/10/11 14:13:24;;;;;;;44.67;31.98;;;;;;;;;;5073612;28;20054;-63
2023/10/11 14:15:58;;;;;;;46.65;31.90;;;;;;;;;;5059373;28;20093;-63
2023/10/11 14:18:27;;;;;;;40.92;32.92;;;;;;;;;;5073584;28;20027;-64
2023/10/11 14:20:56;;;;;;;49.28;35.53;;;;;;;;;;5055382;28;20036;-64
2023/10/11 14:23:27;;;;;;;44.35;32.97;;;;;;;;;;5073358;28;20020;-63
2023/10/11 14:25:53;;;;;;;47.22;34.88;;;;;;;;;;5073327;28;20032;-63
2023/10/11 14:28:19;;;;;;;42.30;33.88;;;;;;;;;;5073347;28;20045;-63
2023/10/11 14:30:49;;;;;;;46.47;35.85;;;;;;;;;;5073645;28;20029;-64
2023/10/11 14:33:17;;;;;;;44.88;34.95;;;;;;;;;;5073727;28;20025;-64
2023/10/11 14:35:44;;;;;;;48.97;34.83;;;;;;;;;;5079276;28;20155;-64
2023/10/11 14:38:19;;;;;;;49.17;34.63;;;;;;;;;;5084972;28;20055;-68
2023/10/11 14:40:46;;;;;;;49.75;35.38;;;;;;;;;;5093725;28;20039;-68
2023/10/11 14:43:14;;;;;;;46.53;35.05;;;;;;;;;;5086882;28;20032;-68
2023/10/11 14:45:44;;;;;;;47.88;37.10;;;;;;;;;;5091526;28;20043;-68
2023/10/11 14:48:10;;;;;;;44.17;35.78;;;;;;;;;;5086002;28;20028;-68
2023/10/11 14:50:37;;;;;;;46.42;34.75;;;;;;;;;;5091292;28;20062;-68
2023/10/11 14:53:03;;;;;;;48.58;36.78;;;;;;;;;;5093415;28;20201;-68
2023/10/11 14:55:32;;;;;;;45.85;32.67;;;;;;;;;;5076647;28;20087;-68
2023/10/11 14:57:58;;;;;;;43.78;31.40;;;;;;;;;;5078977;28;20032;-68
2023/10/11 15:03:27;;;;;;;56.13;39.15;;;;;;;;;;5075703;28;20090;-68
2023/10/11 15:05:53;;;;;;;47.13;36.20;;;;;;;;;;5086272;28;20036;-68
2023/10/11 15:08:19;;;;;;;50.40;38.22;;;;;;;;;;5092900;28;20031;-67
2023/10/11 15:10:47;;;;;;;44.45;36.53;;;;;;;;;;5083661;28;20089;-68
2023/10/11 15:13:13;;;;;;;54.88;37.85;;;;;;;;;;5089841;28;20433;-68
2023/10/11 15:15:40;;;;;;;59.95;37.72;;;;;;;;;;5089131;28;20157;-69
2023/10/11 15:18:07;;;;;;;54.00;40.10;;;;;;;;;;5086789;28;20450;-69
2023/10/11 15:20:39;;;;;;;51.13;38.35;;;;;;;;;;5077157;28;20565;-67
2023/10/11 15:23:07;;;;;;;52.78;39.38;;;;;;;;;;5073070;28;20031;-68
2023/10/11 15:25:33;;;;;;;47.55;36.45;;;;;;;;;;5058343;28;20035;-65